M I D A S
Marine Information and Data Acquisition System
Tripno 1807 of the Zeeleeuw from 2009-11-16 07:53:23 to 2009-11-16 16:18:57
Back to CruiseResearch ActivitiesStationsMapUnderway DataData graphs

EquipmentUnitsComment
TimeDGPSUTC
LatitudeDGPSDM.mWGS84
LongitudeDGPSDM.mWGS84
TemperatureSBE03/SBE38deg celciusITS90
ConductivitySBE21S/mITS90
SalinitySBE21 Practical Salinity Units
ChlorophylAChelsea fluorimeterg/lCalibrated in Aceton
Missing or incorrect values are displayed as -999
Sea surface data collected by the RV Zeeleeuw from 2009-11-16 07:36:09 to 2009-11-16 16:26:54
Time Latitude Longitude Temperature Conductivity Salinity ChlorophylA
2009-11-16 07:37:19 51°13.677 2°55.893 17.2711 0.000943 0.011917 -1.070216
2009-11-16 07:38:19 51°13.688 2°55.81 17.2668 0.000943 0.011915 -1.070216
2009-11-16 07:39:18 51°13.686 2°55.745 17.2797 0.000943 0.011913 -1.070216
2009-11-16 07:40:16 51°13.698 2°55.741 17.2918 0.00084 0.011479 -1.070216
2009-11-16 07:41:15 51°13.746 2°55.709 17.2924 0.00084 0.011477 -1.070216
2009-11-16 07:42:15 51°13.842 2°55.628 17.297 0.00084 0.011476 -1.035392
2009-11-16 07:43:15 51°13.965 2°55.543 17.2887 0.00084 0.011474 -1.070216
2009-11-16 07:44:15 51°14.097 2°55.449 17.2871 0.00084 0.011472 -1.035392
2009-11-16 07:45:15 51°14.227 2°55.324 17.3034 0.00084 0.011471 -1.035392
2009-11-16 07:46:15 51°14.328 2°55.132 17.3109 0.00084 0.011469 -1.035392
2009-11-16 07:47:15 51°14.382 2°54.875 17.2788 0.00084 0.011468 -1.035392
2009-11-16 07:48:15 51°14.415 2°54.582 17.2908 0.00084 0.011466 -1.035392
2009-11-16 07:49:15 51°14.361 2°54.288 17.2893 0.00084 0.011464 -1.035392
2009-11-16 07:50:15 51°14.265 2°54.012 11.9713 3.445039 27.999621 -1.000568
2009-11-16 07:51:15 51°14.17 2°53.733 11.7281 3.846956 33.333997 -0.93092
2009-11-16 07:52:15 51°14.079 2°53.45 11.705 3.855978 33.589277 -0.965744
2009-11-16 07:53:15 51°13.991 2°53.163 11.6788 3.862407 33.703541 -0.965744
2009-11-16 07:54:15 51°13.905 2°52.875 11.6913 3.865725 33.752363 -0.965744
2009-11-16 07:55:15 51°13.816 2°52.589 11.6985 3.869562 33.789703 -1.000568
2009-11-16 07:56:15 51°13.716 2°52.312 11.7203 3.874227 33.828012 -1.000568
2009-11-16 07:57:15 51°13.614 2°52.03 11.7321 3.871531 33.792303 -1.000568
2009-11-16 07:58:15 51°13.512 2°51.743 11.7347 3.87599 33.832528 -1.000568
2009-11-16 07:59:15 51°13.409 2°51.458 11.7408 3.876508 33.834413 -1.035392
2009-11-16 08:00:15 51°13.307 2°51.172 11.7451 3.878375 33.852574 -1.000568
2009-11-16 08:01:15 51°13.209 2°50.883 11.7612 3.875471 33.818799 -1.000568
2009-11-16 08:02:15 51°13.114 2°50.592 11.7881 3.886565 33.910134 -1.000568
2009-11-16 08:03:15 51°13.02 2°50.301 11.8234 3.887809 33.900097 -1.000568
2009-11-16 08:04:15 51°12.926 2°50.012 11.8582 3.891749 33.909953 -1.000568
2009-11-16 08:05:15 51°12.831 2°49.723 11.8828 3.88221 33.78897 -1.000568
2009-11-16 08:06:15 51°12.738 2°49.434 11.8999 3.889053 33.831771 -1.000568
2009-11-16 08:07:15 51°12.645 2°49.145 11.9008 3.896414 33.897669 -1.000568
2009-11-16 08:08:15 51°12.563 2°48.85 11.923 3.900147 33.929151 -1.000568
2009-11-16 08:09:15 51°12.481 2°48.556 11.9779 3.903983 33.938768 -1.000568
2009-11-16 08:10:15 51°12.399 2°48.263 12.0317 3.910826 33.958606 -1.000568
2009-11-16 08:11:15 51°12.316 2°47.972 12.1273 3.918914 33.98416 -1.000568
2009-11-16 08:12:15 51°12.234 2°47.683 12.2238 3.93146 34.010322 -1.000568
2009-11-16 08:13:15 51°12.154 2°47.393 12.2839 3.93851 34.005427 -1.035392
2009-11-16 08:14:15 51°12.072 2°47.105 12.3232 3.941413 33.984128 -1.035392
2009-11-16 08:15:15 51°11.991 2°46.815 12.3549 3.951368 34.046263 -1.035392
2009-11-16 08:16:15 51°11.918 2°46.515 12.3772 3.954582 34.049818 -1.035392
2009-11-16 08:17:15 51°11.867 2°46.204 12.3916 3.958419 34.070273 -1.035392
2009-11-16 08:18:15 51°11.847 2°45.885 12.4019 3.959041 34.062198 -1.035392
2009-11-16 08:19:15 51°11.832 2°45.567 12.4071 3.959456 34.059159 -1.035392
2009-11-16 08:20:15 51°11.804 2°45.255 12.4089 3.957693 34.037564 -1.035392
2009-11-16 08:21:53 51°11.756 2°44.748 12.4076 3.958626 34.045739 -1.000568
2009-11-16 08:22:53 51°11.725 2°44.44 12.4039 3.957796 34.039338 -1.000568
2009-11-16 08:23:53 51°11.689 2°44.135 12.4006 3.959767 34.061364 -1.000568
2009-11-16 08:24:53 51°11.652 2°43.832 12.3969 3.950019 33.970945 -1.000568
2009-11-16 08:25:53 51°11.615 2°43.529 12.3946 3.957693 34.048478 -1.000568
2009-11-16 08:26:53 51°11.578 2°43.227 12.3925 3.959974 34.072718 -1.000568
2009-11-16 08:27:53 51°11.542 2°42.926 12.3917 3.957174 34.046621 -0.965744
2009-11-16 08:28:53 51°11.504 2°42.625 12.3911 3.960286 34.076485 -1.000568
2009-11-16 08:29:53 51°11.466 2°42.323 12.39 3.958315 34.059131 -0.965744
2009-11-16 08:30:53 51°11.427 2°42.022 12.3859 3.956863 34.047534 -1.000568
2009-11-16 08:31:53 51°11.363 2°41.735 12.3845 3.960493 34.085504 -1.000568
2009-11-16 08:32:53 51°11.282 2°41.456 12.3873 3.958108 34.061822 -1.000568
2009-11-16 08:33:53 51°11.184 2°41.187 12.3923 3.962463 34.10208 -0.965744
2009-11-16 08:34:53 51°11.083 2°40.916 12.401 3.961426 34.085875 -0.965744
2009-11-16 08:35:53 51°10.97 2°40.66 12.4099 3.96153 34.080625 -0.965744
2009-11-16 08:36:53 51°10.831 2°40.441 12.4141 3.961322 34.070832 -0.965744
2009-11-16 08:37:53 51°10.676 2°40.257 12.4154 3.959663 34.051792 -0.965744
2009-11-16 08:38:53 51°10.501 2°40.136 12.4212 3.956759 34.020819 -1.000568
2009-11-16 08:39:53 51°10.321 2°40.042 12.4386 3.95707 34.016017 -0.965744
2009-11-16 08:40:53 51°10.144 2°40.049 12.4559 3.957796 34.009749 -0.965744
2009-11-16 08:41:53 51°10.091 2°40.161 12.4743 3.9579 33.993637 -0.965744
2009-11-16 08:42:53 51°10.091 2°40.266 12.4797 3.965573 34.050055 -0.93092
2009-11-16 08:43:53 51°10.053 2°40.312 12.4803 3.967233 34.062061 -0.93092
2009-11-16 08:44:53 51°10.013 2°40.29 12.4765 3.967647 34.066034 -0.93092
2009-11-16 08:45:53 51°10.001 2°40.247 12.4755 3.967751 34.071698 -0.93092
2009-11-16 08:46:53 51°10.003 2°40.236 12.4768 3.967751 34.071698 -0.93092
2009-11-16 08:47:55 51°10.008 2°40.224 12.4772 3.967751 34.072477 -0.93092
2009-11-16 08:48:53 51°10.012 2°40.213 12.4771 3.967751 34.072477 -0.93092
2009-11-16 08:49:53 51°10.017 2°40.202 12.4774 3.967959 34.072907 -0.93092
2009-11-16 08:50:53 51°10.022 2°40.191 12.4759 3.967855 34.07347 -0.93092
2009-11-16 08:51:53 51°10.027 2°40.181 12.4782 3.967959 34.073685 -0.93092
2009-11-16 08:52:53 51°10.032 2°40.172 12.5069 3.968373 34.072989 -0.896096
2009-11-16 08:53:53 51°10.038 2°40.165 12.5961 3.968269 34.023033 -0.93092
2009-11-16 08:54:53 51°10.043 2°40.159 12.5482 3.977498 34.050771 -0.93092
2009-11-16 08:55:53 51°10.049 2°40.153 12.5156 3.975424 34.074396 -0.93092
2009-11-16 08:56:53 51°10.055 2°40.148 12.5049 3.97304 34.076443 -0.93092
2009-11-16 08:57:53 51°10.06 2°40.144 12.4988 3.971899 34.07641 -0.896096
2009-11-16 08:58:53 51°10.065 2°40.14 12.4928 3.971484 34.076328 -0.896096
2009-11-16 08:59:53 51°10.071 2°40.136 12.495 3.971173 34.075683 -0.896096
2009-11-16 09:00:53 51°10.077 2°40.133 12.4919 3.971173 34.076461 -0.93092
2009-11-16 09:01:53 51°10.082 2°40.13 12.4993 3.971069 34.075468 -0.896096
2009-11-16 09:02:53 51°10.088 2°40.129 12.5009 3.971484 34.07555 -0.896096
2009-11-16 09:03:53 51°10.093 2°40.128 12.5022 3.971484 34.073995 -0.896096
2009-11-16 09:04:53 51°10.099 2°40.127 12.5077 3.97138 34.072224 -0.896096
2009-11-16 09:05:53 51°10.106 2°40.127 12.5101 3.971795 34.069975 -0.896096
2009-11-16 09:06:53 51°10.114 2°40.128 12.5122 3.971899 34.07019 -0.896096
2009-11-16 09:07:53 51°10.122 2°40.131 12.5133 3.971899 34.067858 -0.896096
2009-11-16 09:08:53 51°10.131 2°40.135 12.515 3.971899 34.066303 -0.896096
2009-11-16 09:09:53 51°10.141 2°40.138 12.5124 3.971795 34.064534 -0.896096
2009-11-16 09:10:53 51°10.148 2°40.141 12.5135 3.971795 34.066088 -0.896096
2009-11-16 09:11:53 51°10.157 2°40.145 12.5136 3.971588 34.064103 -0.896096
2009-11-16 09:12:53 51°10.166 2°40.15 12.5135 3.971277 34.060349 -0.896096
2009-11-16 09:13:53 51°10.176 2°40.158 12.5099 3.970862 34.057156 -0.896096
2009-11-16 09:14:53 51°10.186 2°40.169 12.5054 3.970136 34.05254 -0.896096
2009-11-16 09:15:53 51°10.196 2°40.151 12.5043 3.968995 34.045507 -0.861272
2009-11-16 09:16:53 51°10.204 2°40.05 12.4901 3.967854 34.038474 -0.861272
2009-11-16 09:17:53 51°10.2 2°39.851 12.4711 3.965677 34.030834 -0.826448
2009-11-16 09:18:53 51°10.137 2°39.602 12.4667 3.964121 34.030704 -0.826448
2009-11-16 09:19:53 51°10.065 2°39.341 12.4652 3.963499 34.027854 -0.826448
2009-11-16 09:20:53 51°9.995 2°39.08 12.4607 3.962773 34.022456 -0.861272
2009-11-16 09:21:53 51°9.926 2°38.819 12.4622 3.96184 34.017402 -0.826448
2009-11-16 09:22:53 51°9.858 2°38.559 12.4573 3.961529 34.012867 -0.826448
2009-11-16 09:23:53 51°9.791 2°38.299 12.4533 3.960596 34.009367 -0.826448
2009-11-16 09:24:53 51°9.725 2°38.041 12.4466 3.959766 34.005305 -0.826448
2009-11-16 09:25:53 51°9.659 2°37.783 12.4389 3.958729 34.001587 -0.826448
2009-11-16 09:26:53 51°9.613 2°37.562 12.4345 3.957796 33.99653 -0.826448
2009-11-16 09:27:53 51°9.657 2°37.488 12.4294 3.95707 33.994237 -0.826448
2009-11-16 09:28:53 51°9.726 2°37.526 12.434 3.95707 33.997346 -0.826448
2009-11-16 09:29:53 51°9.789 2°37.6 12.4451 3.958314 34.004608 -0.861272
2009-11-16 09:30:53 51°9.833 2°37.683 12.4448 3.960285 34.015715 -0.826448
2009-11-16 09:31:53 51°9.867 2°37.772 12.4432 3.960699 34.018912 -0.826448
2009-11-16 09:32:53 51°9.892 2°37.863 12.4389 3.9607 34.01969 -0.826448
2009-11-16 09:33:53 51°9.916 2°37.952 12.4399 3.960492 34.020813 -0.826448
2009-11-16 09:34:53 51°9.946 2°38.037 12.4428 3.9607 34.020468 -0.826448
2009-11-16 09:35:53 51°9.976 2°38.121 12.4415 3.960907 34.0209 -0.861272
2009-11-16 09:36:53 51°10.007 2°38.205 12.4331 3.960803 34.023017 -0.826448
2009-11-16 09:37:53 51°10.038 2°38.289 12.4228 3.960181 34.024055 -0.826448
2009-11-16 09:38:53 51°10.068 2°38.372 12.4175 3.958833 34.020469 -0.826448
2009-11-16 09:39:53 51°10.098 2°38.456 12.4165 3.958418 34.019605 -0.826448
2009-11-16 09:40:53 51°10.129 2°38.54 12.4212 3.958522 34.020599 -0.826448
2009-11-16 09:41:53 51°10.16 2°38.625 12.4166 3.959041 34.022457 -0.826448
2009-11-16 09:42:53 51°10.19 2°38.71 12.4154 3.958522 34.020599 -0.826448
2009-11-16 09:43:53 51°10.22 2°38.796 12.4067 3.957796 34.016752 -0.826448
2009-11-16 09:44:53 51°10.251 2°38.885 12.4046 3.956967 34.013466 -0.826448
2009-11-16 09:45:53 51°10.282 2°38.976 12.3997 3.956656 34.013596 -0.826448
2009-11-16 09:46:53 51°10.316 2°39.068 12.3959 3.956033 34.010742 -0.826448
2009-11-16 09:47:53 51°10.349 2°39.161 12.3929 3.955411 34.009445 -0.826448
2009-11-16 09:48:53 51°10.382 2°39.254 12.3915 3.9551 34.008796 -0.826448
2009-11-16 09:49:53 51°10.414 2°39.346 12.3903 3.954996 34.007802 -0.826448
2009-11-16 09:50:53 51°10.446 2°39.44 12.3872 3.954893 34.008364 -0.826448
2009-11-16 09:51:53 51°10.478 2°39.534 12.3847 3.954582 34.008494 -0.826448
2009-11-16 09:52:53 51°10.511 2°39.63 12.3857 3.954478 34.007499 -0.826448
2009-11-16 09:53:53 51°10.546 2°39.725 12.3838 3.954478 34.008278 -0.826448
2009-11-16 09:54:53 51°10.585 2°39.822 12.3825 3.954167 34.007629 -0.826448
2009-11-16 09:55:53 51°10.623 2°39.916 12.3819 3.953856 34.006201 -0.826448
2009-11-16 09:56:53 51°10.663 2°40.008 12.3828 3.953856 34.00698 -0.826448
2009-11-16 09:57:53 51°10.703 2°40.099 12.3842 3.95396 34.005639 -0.826448
2009-11-16 09:58:53 51°10.747 2°40.185 12.3846 3.954167 34.00685 -0.791624
2009-11-16 09:59:53 51°10.795 2°40.26 12.3859 3.954374 34.007283 -0.826448
2009-11-16 10:00:53 51°10.843 2°40.335 12.3839 3.954478 34.007499 -0.826448
2009-11-16 10:01:53 51°10.876 2°40.429 12.3884 3.954374 34.008061 -0.791624
2009-11-16 10:02:53 51°10.902 2°40.524 12.3908 3.954789 34.008926 -0.826448
2009-11-16 10:03:53 51°10.92 2°40.62 12.3919 3.9551 34.009575 -0.791624
2009-11-16 10:04:53 51°10.929 2°40.721 12.395 3.955204 34.009791 -0.791624
2009-11-16 10:05:53 51°10.935 2°40.817 12.3977 3.955722 34.011651 -0.791624
2009-11-16 10:06:53 51°10.945 2°40.895 12.4004 3.956033 34.011521 -0.791624
2009-11-16 10:07:53 51°10.957 2°40.964 12.4015 3.956448 34.012385 -0.826448
2009-11-16 10:08:53 51°10.97 2°41.026 12.4031 3.956552 34.01338 -0.826448
2009-11-16 10:09:53 51°10.984 2°41.098 12.4042 3.956759 34.013812 -0.826448
2009-11-16 10:10:53 51°11.033 2°41.236 12.403 3.956759 34.013812 -0.791624
2009-11-16 10:11:53 51°11.169 2°41.327 12.4454 3.957381 34.01044 -0.791624
2009-11-16 10:12:53 51°11.342 2°41.473 12.4258 3.958937 34.017572 -0.791624
2009-11-16 10:13:53 51°11.497 2°41.699 12.4297 3.958211 34.017616 -0.791624
2009-11-16 10:14:53 51°11.601 2°41.997 12.4327 3.958522 34.018264 -0.791624
2009-11-16 10:15:53 51°11.664 2°42.319 12.436 3.959248 34.022111 -0.7568
2009-11-16 10:16:53 51°11.674 2°42.655 12.4461 3.959974 34.023623 -0.7568
2009-11-16 10:17:53 51°11.663 2°42.995 12.4544 3.961114 34.027554 -0.7568
2009-11-16 10:18:53 51°11.652 2°43.337 12.4577 3.96184 34.029844 -0.7568
2009-11-16 10:19:53 51°11.644 2°43.682 12.4628 3.962566 34.031355 -0.7568
2009-11-16 10:20:53 51°11.651 2°44.03 12.4804 3.964329 34.041245 -0.7568
2009-11-16 10:21:53 51°11.668 2°44.379 12.4628 3.966922 34.062971 -0.7568
2009-11-16 10:22:53 51°11.695 2°44.728 12.4576 3.968788 34.085528 -0.7568
2009-11-16 10:23:53 51°11.73 2°45.076 12.4276 3.968789 34.097996 -0.7568
2009-11-16 10:25:49 51°11.823 2°45.745 12.4374 3.966818 34.094698 -0.7568
2009-11-16 10:26:50 51°11.871 2°46.095 12.4468 3.967337 34.091873 -0.7568
2009-11-16 10:27:49 51°11.92 2°46.431 12.4535 3.967648 34.090179 -0.7568
2009-11-16 10:28:49 51°11.989 2°46.767 12.4557 3.968063 34.088699 -0.7568
2009-11-16 10:29:50 51°12.059 2°47.097 12.4547 3.968374 34.090123 -0.7568
2009-11-16 10:30:50 51°12.106 2°47.317 12.4552 3.96827 34.093026 -0.7568
2009-11-16 10:31:50 51°12.135 2°47.463 12.4503 3.968477 34.094234 -0.7568
2009-11-16 10:32:49 51°12.156 2°47.577 12.4507 3.968374 34.095579 -0.7568
2009-11-16 10:33:50 51°12.171 2°47.718 12.4504 3.968477 34.097352 -0.7568
2009-11-16 10:34:50 51°12.177 2°47.859 12.4506 3.968581 34.097567 -0.7568
2009-11-16 10:35:50 51°12.184 2°47.981 12.4478 3.968581 34.099126 -0.7568
2009-11-16 10:36:50 51°12.198 2°48.1 12.4504 3.968789 34.098776 -0.7568
2009-11-16 10:37:50 51°12.219 2°48.215 12.4502 3.968789 34.099555 -0.7568
2009-11-16 10:38:50 51°12.248 2°48.326 12.4454 3.968477 34.098912 -0.7568
2009-11-16 10:39:49 51°12.274 2°48.433 12.4153 3.967544 34.09776 -0.7568
2009-11-16 10:40:49 51°12.298 2°48.543 12.4001 3.964952 34.093175 -0.7568
2009-11-16 10:41:49 51°12.325 2°48.654 12.382 3.963085 34.089311 -0.7568
2009-11-16 10:42:50 51°12.353 2°48.762 12.3561 3.9607 34.085152 -0.721976
2009-11-16 10:43:49 51°12.381 2°48.861 12.3346 3.957901 34.080915 -0.721976
2009-11-16 10:44:50 51°12.412 2°48.962 12.3087 3.955516 34.075191 -0.721976
2009-11-16 10:45:49 51°12.442 2°49.062 12.2871 3.952509 34.068174 -0.721976
2009-11-16 10:46:50 51°12.472 2°49.167 12.2582 3.949087 34.061076 -0.687152
2009-11-16 10:47:50 51°12.501 2°49.271 12.239 3.946495 34.054913 -0.721976
2009-11-16 10:48:50 51°12.533 2°49.373 12.2163 3.943695 34.050667 -0.687152
2009-11-16 10:49:50 51°12.565 2°49.475 12.194 3.941518 34.043793 -0.687152
2009-11-16 10:50:50 51°12.598 2°49.576 12.1771 3.938614 34.036976 -0.687152
2009-11-16 10:51:49 51°12.63 2°49.676 12.1626 3.935815 34.03194 -0.687152
2009-11-16 10:52:50 51°12.663 2°49.779 12.1488 3.934467 34.027567 -0.687152
2009-11-16 10:53:50 51°12.697 2°49.88 12.1446 3.933119 34.023978 -0.687152
2009-11-16 10:54:50 51°12.731 2°49.982 12.1342 3.932082 34.02182 -0.687152
2009-11-16 10:55:50 51°12.765 2°50.085 12.1202 3.930941 34.019446 -0.687152
2009-11-16 10:56:49 51°12.798 2°50.187 12.1177 3.929905 34.017288 -0.652328
2009-11-16 10:57:50 51°12.835 2°50.291 12.1099 3.92949 34.015639 -0.652328
2009-11-16 10:58:50 51°12.873 2°50.391 12.1048 3.928349 34.014049 -0.652328
2009-11-16 10:59:50 51°12.911 2°50.49 12.0938 3.927416 34.010535 -0.652328
2009-11-16 11:00:49 51°12.951 2°50.586 12.0938 3.926587 34.009592 -0.652328
2009-11-16 11:01:50 51°12.993 2°50.684 12.0919 3.926379 34.009161 -0.652328
2009-11-16 11:02:49 51°13.035 2°50.776 12.0906 3.926276 34.008159 -0.652328
2009-11-16 11:03:50 51°13.073 2°50.874 12.0627 3.925239 34.005998 -0.652328
2009-11-16 11:04:50 51°13.105 2°50.975 12.0551 3.922543 34.00038 -0.652328
2009-11-16 11:05:50 51°13.127 2°51.077 12.0332 3.92078 33.994346 -0.617504
2009-11-16 11:06:50 51°13.149 2°51.176 12.0218 3.918499 33.988801 -0.652328
2009-11-16 11:07:50 51°13.17 2°51.273 12.0122 3.916529 33.982329 -0.652328
2009-11-16 11:08:50 51°13.189 2°51.373 11.9887 3.915285 33.976583 -0.617504
2009-11-16 11:09:50 51°13.205 2°51.469 11.9743 3.911863 33.96786 -0.652328
2009-11-16 11:10:50 51°13.224 2°51.547 11.9587 3.910515 33.961104 -0.617504
2009-11-16 11:11:50 51°13.244 2°51.612 11.9476 3.907923 33.954895 -0.617504
2009-11-16 11:12:50 51°13.263 2°51.704 11.9279 3.905435 33.946536 -0.617504
2009-11-16 11:13:50 51°13.325 2°51.801 11.876 3.902947 33.93896 -0.617504
2009-11-16 11:14:49 51°13.389 2°51.773 11.8354 3.895793 33.920018 -0.58268
2009-11-16 11:15:50 51°13.422 2°51.643 11.8281 3.891023 33.90448 -0.58268
2009-11-16 11:16:50 51°13.455 2°51.606 11.8457 3.891853 33.906222 -0.547855
2009-11-16 11:17:50 51°13.493 2°51.624 11.8599 3.893823 33.913516 -0.58268
2009-11-16 11:18:50 51°13.526 2°51.653 11.874 3.895585 33.918005 -0.58268
2009-11-16 11:19:50 51°13.559 2°51.691 11.8802 3.896933 33.921622 -0.58268
2009-11-16 11:20:50 51°13.592 2°51.736 11.9255 3.899214 33.927195 -0.58268
2009-11-16 11:21:50 51°13.623 2°51.796 11.9605 3.904502 33.943006 -0.617504
2009-11-16 11:22:49 51°13.654 2°51.858 12.0183 3.909271 33.957715 -0.652328
2009-11-16 11:23:50 51°13.685 2°51.919 12.0595 3.917877 33.981995 -0.652328
2009-11-16 11:24:50 51°13.718 2°51.981 12.2553 3.922128 33.990867 -0.617504
2009-11-16 11:25:49 51°13.75 2°52.042 12.3083 3.945354 34.024376 -0.652328
2009-11-16 11:26:50 51°13.784 2°52.105 12.2572 3.950124 34.055404 -0.687152
2009-11-16 11:27:49 51°13.811 2°52.174 12.2521 3.947324 34.055852 -0.652328
2009-11-16 11:28:50 51°13.824 2°52.266 12.2121 3.947117 34.059337 -0.617504
2009-11-16 11:29:49 51°13.844 2°52.334 12.1587 3.940688 34.044422 -0.617504
2009-11-16 11:30:49 51°13.888 2°52.332 12.2125 3.935815 34.028017 -0.617504
2009-11-16 11:31:50 51°13.894 2°52.313 12.2987 3.944421 34.048258 -0.617504
2009-11-16 11:32:50 51°13.905 2°52.322 12.3289 3.954375 34.077519 -0.652328
2009-11-16 11:33:49 51°13.923 2°52.343 12.3494 3.958005 34.088946 -0.617504
2009-11-16 11:34:50 51°13.943 2°52.373 12.3668 3.960701 34.095307 -0.617504
2009-11-16 11:35:50 51°13.946 2°52.402 12.3743 3.962256 34.100869 -0.652328
2009-11-16 11:36:50 51°13.941 2°52.53 12.3059 3.963189 34.102019 -0.652328
2009-11-16 11:37:50 51°13.991 2°52.765 12.1488 3.950435 34.074048 -0.58268
2009-11-16 11:38:50 51°14.087 2°53.026 12.059 3.931978 34.020819 -0.58268
2009-11-16 11:39:50 51°14.183 2°53.275 12.0067 3.921817 33.989432 -0.58268
2009-11-16 11:40:50 51°14.278 2°53.525 11.9661 3.9157 33.973515 -0.58268
2009-11-16 11:41:50 51°14.372 2°53.787 11.9225 3.910204 33.962029 -0.547855
2009-11-16 11:42:49 51°14.46 2°54.093 11.8547 3.904606 33.947163 -0.547855
2009-11-16 11:43:50 51°14.573 2°54.397 11.8028 3.894963 33.914332 -0.513031
2009-11-16 11:44:49 51°14.725 2°54.639 11.7995 3.888639 33.889204 -0.513031
2009-11-16 11:45:50 51°14.895 2°54.871 11.8425 3.890505 33.901022 -0.513031
2009-11-16 11:46:50 51°15.06 2°55.104 11.9259 3.898488 33.936719 -0.547855
2009-11-16 11:47:50 51°15.226 2°55.341 12.0402 3.911553 33.980602 -0.547855
2009-11-16 11:48:50 51°15.391 2°55.577 12.083 3.924306 34.016636 -0.513031
2009-11-16 11:49:50 51°15.555 2°55.811 12.0698 3.929594 34.037859 -0.443383
2009-11-16 11:50:49 51°15.713 2°56.033 11.927 3.926794 34.045422 -0.443383
2009-11-16 11:51:50 51°15.871 2°56.272 11.8014 3.911864 34.031771 -0.478207
2009-11-16 11:52:49 51°16.009 2°56.53 11.7913 3.902429 34.027209 -0.478207
2009-11-16 11:53:50 51°16.152 2°56.801 11.8083 3.903052 34.036431 -0.478207
2009-11-16 11:54:50 51°16.278 2°57.081 11.8239 3.907303 34.062697 -0.478207
2009-11-16 11:55:49 51°16.374 2°57.382 11.824 3.911658 34.095513 -0.478207
2009-11-16 11:56:50 51°16.466 2°57.699 11.816 3.913006 34.110206 -0.513031
2009-11-16 11:57:49 51°16.558 2°58.002 11.8079 3.91228 34.109503 -0.513031
2009-11-16 11:58:50 51°16.658 2°58.309 11.7983 3.91228 34.11586 -0.547855
2009-11-16 11:59:49 51°16.78 2°58.582 11.7867 3.911554 34.119133 -0.547855
2009-11-16 12:00:50 51°16.909 2°58.861 11.7836 3.911451 34.127668 -0.547855
2009-11-16 12:01:49 51°17.031 2°59.132 11.7799 3.912903 34.144183 -0.547855
2009-11-16 12:02:50 51°17.16 2°59.41 11.7841 3.913318 34.160166 -0.547855
2009-11-16 12:03:50 51°17.288 2°59.687 11.8053 3.914147 34.161072 -0.547855
2009-11-16 12:04:49 51°17.414 2°59.964 11.7986 3.916013 34.168088 -0.547855
2009-11-16 12:05:50 51°17.543 3°0.255 11.795 3.916843 34.179348 -0.547855
2009-11-16 12:06:50 51°17.672 3°0.54 11.7901 3.917776 34.194011 -0.547855
2009-11-16 12:07:50 51°17.802 3°0.825 11.7808 3.916532 34.188275 -0.547855
2009-11-16 12:08:50 51°17.928 3°1.113 11.7662 3.916428 34.197633 -0.547855
2009-11-16 12:09:50 51°18.056 3°1.397 11.7628 3.914562 34.188228 -0.547855
2009-11-16 12:10:50 51°18.184 3°1.679 11.7595 3.91394 34.189348 -0.547855
2009-11-16 12:11:50 51°18.31 3°1.958 11.7689 3.914873 34.199239 -0.547855
2009-11-16 12:12:50 51°18.436 3°2.238 11.7356 3.914873 34.208821 -0.513031
2009-11-16 12:13:50 51°18.562 3°2.514 11.6931 3.913629 34.218266 -0.513031
2009-11-16 12:14:50 51°18.687 3°2.789 11.6625 3.911141 34.227588 -0.513031
2009-11-16 12:15:49 51°18.812 3°3.061 11.6627 3.909068 34.228965 -0.513031
2009-11-16 12:16:50 51°18.941 3°3.343 11.6669 3.908964 34.227953 -0.513031
2009-11-16 12:17:49 51°19.066 3°3.614 11.669 3.909275 34.224582 -0.513031
2009-11-16 12:18:49 51°19.193 3°3.887 11.6805 3.909171 34.221167 -0.513031
2009-11-16 12:19:49 51°19.319 3°4.159 11.676 3.909171 34.217163 -0.513031
2009-11-16 12:20:50 51°19.447 3°4.435 11.6655 3.908342 34.207464 -0.513031
2009-11-16 12:21:49 51°19.57 3°4.704 11.651 3.905335 34.192512 -0.478207
2009-11-16 12:22:50 51°19.701 3°4.975 11.6428 3.902535 34.173975 -0.478207
2009-11-16 12:23:50 51°19.856 3°5.205 11.6406 3.90015 34.161083 -0.478207
2009-11-16 12:24:50 51°20.013 3°5.431 11.6321 3.89901 34.157942 -0.478207
2009-11-16 12:25:50 51°20.17 3°5.658 11.6255 3.899632 34.169625 -0.478207
2009-11-16 12:26:49 51°20.323 3°5.883 11.6185 3.900047 34.180085 -0.478207
2009-11-16 12:27:50 51°20.481 3°6.119 11.5799 3.899632 34.184845 -0.478207
2009-11-16 12:29:17 51°20.707 3°6.456 11.4744 3.880036 34.077232 -0.443383
2009-11-16 12:30:18 51°20.866 3°6.691 11.377 3.859715 33.950144 -0.408559
2009-11-16 12:31:17 51°21.019 3°6.917 11.3191 3.837529 33.800393 -0.408559
2009-11-16 12:32:17 51°21.171 3°7.154 11.2585 3.81441 33.632335 -0.269263
2009-11-16 12:33:17 51°21.299 3°7.424 11.2124 3.790049 33.435845 -0.164791
2009-11-16 12:34:18 51°21.425 3°7.708 11.176 3.769835 33.278291 -0.060319
2009-11-16 12:35:17 51°21.547 3°7.985 11.1671 3.755944 33.172475 0.044153
2009-11-16 12:36:17 51°21.672 3°8.27 11.1536 3.750347 33.12137 0.113802
2009-11-16 12:37:17 51°21.782 3°8.57 11.1629 3.745268 33.076933 0.113802
2009-11-16 12:38:17 51°21.888 3°8.868 11.1556 3.733555 32.96728 0.18345
2009-11-16 12:39:17 51°21.994 3°9.165 11.1582 3.722671 32.867361 0.18345
2009-11-16 12:40:17 51°22.076 3°9.478 11.1434 3.719044 32.824697 0.218274
2009-11-16 12:41:17 51°22.145 3°9.799 11.1442 3.714587 32.791828 0.253098
2009-11-16 12:42:17 51°22.214 3°10.125 11.1325 3.71355 32.773079 0.253098
2009-11-16 12:43:17 51°22.285 3°10.452 11.1431 3.711063 32.755653 0.218274
2009-11-16 12:44:17 51°22.338 3°10.774 11.1125 3.706295 32.722046 0.148626
2009-11-16 12:45:17 51°22.372 3°10.983 11.1112 3.70246 32.6937 0.148626
2009-11-16 12:46:17 51°22.43 3°11.082 11.1018 3.699869 32.679899 0.113802
2009-11-16 12:47:17 51°22.466 3°11.147 11.1079 3.700387 32.677219 0.078977
2009-11-16 12:48:17 51°22.491 3°11.211 11.1089 3.700905 32.677648 0.044153
2009-11-16 12:49:17 51°22.514 3°11.277 11.2128 3.704222 32.686142 -0.095143
2009-11-16 12:50:17 51°22.535 3°11.344 11.1332 3.709715 32.707449 -0.129967
2009-11-16 12:51:17 51°22.556 3°11.414 11.1084 3.703082 32.684267 -0.129967
2009-11-16 12:52:17 51°22.575 3°11.486 11.1023 3.70132 32.680944 -0.129967
2009-11-16 12:53:17 51°22.594 3°11.559 11.1175 3.705155 32.714734 -0.129967
2009-11-16 12:54:17 51°22.614 3°11.631 11.1124 3.707021 32.729952 -0.129967
2009-11-16 12:55:17 51°22.639 3°11.695 11.1328 3.708886 32.747503 -0.164791
2009-11-16 12:56:18 51°22.68 3°11.682 11.1288 3.715105 32.789127 -0.199615
2009-11-16 12:57:18 51°22.691 3°11.613 11.1284 3.714794 32.796981 -0.234439
2009-11-16 12:58:18 51°22.69 3°11.514 11.1324 3.716556 32.810396 -0.269263
2009-11-16 12:59:18 51°22.698 3°11.456 11.1311 3.718007 32.823093 -0.269263
2009-11-16 13:00:18 51°22.718 3°11.455 11.1297 3.718214 32.827469 -0.269263
2009-11-16 13:01:18 51°22.744 3°11.466 11.1338 3.7178 32.823396 -0.234439
2009-11-16 13:02:18 51°22.77 3°11.481 11.1375 3.721013 32.849504 -0.234439
2009-11-16 13:03:18 51°22.798 3°11.498 11.1453 3.72236 32.859621 -0.234439
2009-11-16 13:04:18 51°22.824 3°11.522 11.1561 3.725159 32.880869 -0.269263
2009-11-16 13:05:18 51°22.852 3°11.582 11.1647 3.728994 32.908387 -0.269263
2009-11-16 13:06:18 51°22.871 3°11.659 11.1622 3.730238 32.917478 -0.269263
2009-11-16 13:07:18 51°22.887 3°11.735 11.1665 3.731274 32.926878 -0.304087
2009-11-16 13:08:18 51°22.905 3°11.81 11.1656 3.732 32.930878 -0.304087
2009-11-16 13:09:18 51°22.925 3°11.884 11.1578 3.730238 32.916697 -0.304087
2009-11-16 13:10:18 51°22.945 3°11.956 11.1559 3.728165 32.901023 -0.304087
2009-11-16 13:11:18 51°22.967 3°12.029 11.1542 3.728579 32.904314 -0.304087
2009-11-16 13:12:18 51°22.987 3°12.1 11.1603 3.727646 32.898276 -0.304087
2009-11-16 13:13:18 51°23.006 3°12.17 11.1624 3.729719 32.913951 -0.304087
2009-11-16 13:14:18 51°23.025 3°12.241 11.1648 3.729201 32.908079 -0.338911
2009-11-16 13:15:18 51°23.046 3°12.31 11.1732 3.732207 32.932132 -0.338911
2009-11-16 13:16:18 51°23.1 3°12.359 11.1973 3.734695 32.950309 -0.269263
2009-11-16 13:17:18 51°23.204 3°12.418 11.2163 3.74817 33.057577 -0.269263
2009-11-16 13:18:18 51°23.328 3°12.441 11.2274 3.7547 33.106005 -0.269263
2009-11-16 13:19:18 51°23.484 3°12.383 11.2317 3.758846 33.141215 -0.269263
2009-11-16 13:20:18 51°23.617 3°12.231 11.2553 3.764547 33.188539 -0.269263
2009-11-16 13:21:18 51°23.681 3°12.012 11.2787 3.77481 33.2696 -0.269263
2009-11-16 13:22:18 51°23.727 3°11.782 11.2991 3.78331 33.332529 -0.304087
2009-11-16 13:23:18 51°23.745 3°11.557 11.3292 3.79067 33.384226 -0.338911
2009-11-16 13:24:18 51°23.819 3°11.514 11.3369 3.797097 33.423575 -0.338911
2009-11-16 13:25:18 51°23.904 3°11.562 11.3458 3.800414 33.448202 -0.373735
2009-11-16 13:26:18 51°24.006 3°11.669 11.3574 3.803006 33.467289 -0.373735
2009-11-16 13:27:18 51°24.03 3°11.818 11.3648 3.806738 33.488853 -0.373735
2009-11-16 13:28:18 51°24.034 3°11.941 11.3641 3.80736 33.491787 -0.373735
2009-11-16 13:29:18 51°24.022 3°12.055 11.3633 3.806945 33.485352 -0.373735
2009-11-16 13:30:18 51°24.008 3°12.163 11.3616 3.806116 33.479596 -0.338911
2009-11-16 13:31:18 51°24.001 3°12.277 11.3592 3.805079 33.469437 -0.373735
2009-11-16 13:32:18 51°23.997 3°12.393 11.352 3.803628 33.456795 -0.373735
2009-11-16 13:33:18 51°23.992 3°12.505 11.349 3.800621 33.43523 -0.338911
2009-11-16 13:34:18 51°23.979 3°12.607 11.343 3.798341 33.416036 -0.338911
2009-11-16 13:35:18 51°23.958 3°12.702 11.3355 3.796786 33.404742 -0.338911
2009-11-16 13:36:18 51°23.936 3°12.801 11.3252 3.794609 33.392081 -0.304087
2009-11-16 13:37:18 51°23.912 3°12.903 11.3143 3.792743 33.382465 -0.304087
2009-11-16 13:38:18 51°23.889 3°13.007 11.3042 3.790255 33.368324 -0.304087
2009-11-16 13:39:18 51°23.866 3°13.112 11.2914 3.787456 33.348761 -0.269263
2009-11-16 13:40:18 51°23.843 3°13.218 11.2789 3.783517 33.322737 -0.304087
2009-11-16 13:41:18 51°23.821 3°13.324 11.2718 3.780303 33.29988 -0.304087
2009-11-16 13:42:18 51°23.802 3°13.435 11.2689 3.777297 33.276688 -0.304087
2009-11-16 13:43:18 51°23.785 3°13.549 11.2687 3.776468 33.267764 -0.269263
2009-11-16 13:44:18 51°23.772 3°13.667 11.2607 3.773773 33.246831 -0.269263
2009-11-16 13:45:18 51°23.761 3°13.791 11.2529 3.770559 33.222382 -0.269263
2009-11-16 13:46:18 51°23.753 3°13.91 11.2525 3.768486 33.205971 -0.269263
2009-11-16 13:47:18 51°23.743 3°14.021 11.2522 3.767553 33.197603 -0.269263
2009-11-16 13:48:18 51°23.737 3°14.13 11.2546 3.767968 33.2001 -0.234439
2009-11-16 13:49:18 51°23.734 3°14.241 11.2593 3.768486 33.202041 -0.269263
2009-11-16 13:50:18 51°23.733 3°14.353 11.2635 3.769315 33.207819 -0.269263
2009-11-16 13:51:18 51°23.734 3°14.466 11.2665 3.770145 33.213596 -0.269263
2009-11-16 13:52:18 51°23.736 3°14.579 11.2694 3.771285 33.221638 -0.269263
2009-11-16 13:53:18 51°23.736 3°14.69 11.2658 3.771492 33.223672 -0.269263
2009-11-16 13:54:18 51°23.735 3°14.799 11.2591 3.769626 33.210084 -0.304087
2009-11-16 13:55:18 51°23.736 3°14.908 11.2566 3.76776 33.194136 -0.304087
2009-11-16 13:56:18 51°23.738 3°15.019 11.2554 3.766102 33.181008 -0.269263
2009-11-16 13:57:18 51°23.742 3°15.132 11.2542 3.764858 33.170375 -0.304087
2009-11-16 13:58:18 51°23.746 3°15.243 11.2545 3.764132 33.163256 -0.304087
2009-11-16 13:59:18 51°23.748 3°15.352 11.2554 3.763821 33.15942 -0.269263
2009-11-16 14:00:18 51°23.749 3°15.458 11.2575 3.762681 33.14902 -0.269263
2009-11-16 14:01:18 51°23.741 3°15.555 11.2589 3.762785 33.146113 -0.269263
2009-11-16 14:02:18 51°23.721 3°15.647 11.2617 3.763096 33.14681 -0.269263
2009-11-16 14:03:18 51°23.698 3°15.741 11.2593 3.762681 33.141958 -0.234439
2009-11-16 14:04:18 51°23.669 3°15.824 11.2566 3.761437 33.131327 -0.234439
2009-11-16 14:05:18 51°23.635 3°15.895 11.2568 3.759779 33.117413 -0.199615
2009-11-16 14:06:18 51°23.613 3°15.949 11.2509 3.758846 33.109048 -0.199615
2009-11-16 14:07:18 51°23.608 3°15.998 11.2492 3.75698 33.094666 -0.164791
2009-11-16 14:08:18 51°23.609 3°16.042 11.249 3.756047 33.0863 -0.199615
2009-11-16 14:09:18 51°23.61 3°16.089 11.2523 3.756151 33.087317 -0.199615
2009-11-16 14:10:18 51°23.553 3°16.092 11.2425 3.756876 33.090516 -0.164791
2009-11-16 14:11:18 51°23.547 3°15.965 11.2256 3.750761 33.046976 -0.164791
2009-11-16 14:12:18 51°23.547 3°15.747 11.2218 3.746925 33.021873 -0.164791
2009-11-16 14:13:18 51°23.512 3°15.5 11.1997 3.743401 32.994334 -0.164791
2009-11-16 14:14:18 51°23.472 3°15.253 11.1904 3.737286 32.949954 -0.164791
2009-11-16 14:15:18 51°23.434 3°15.007 11.183 3.734902 32.935149 -0.234439
2009-11-16 14:16:18 51°23.397 3°14.763 11.1732 3.733036 32.923864 -0.269263
2009-11-16 14:17:18 51°23.36 3°14.524 11.1682 3.730549 32.908032 -0.234439
2009-11-16 14:18:18 51°23.325 3°14.287 11.1687 3.730238 32.908884 -0.269263
2009-11-16 14:19:18 51°23.293 3°14.049 11.1631 3.731067 32.917027 -0.269263
2009-11-16 14:20:18 51°23.263 3°13.817 11.1476 3.726921 32.886463 -0.199615
2009-11-16 14:21:18 51°23.229 3°13.587 11.1395 3.72236 32.851816 -0.199615
2009-11-16 14:22:18 51°23.196 3°13.355 11.1345 3.719976 32.83386 -0.164791
2009-11-16 14:23:18 51°23.162 3°13.127 11.1357 3.719458 32.831109 -0.129967
2009-11-16 14:24:18 51°23.13 3°12.902 11.1294 3.721635 32.849371 -0.060319
2009-11-16 14:25:18 51°23.101 3°12.682 11.1206 3.717904 32.823634 -0.129967
2009-11-16 14:26:19 51°23.073 3°12.458 11.1157 3.715416 32.80621 -0.199615
2009-11-16 14:27:17 51°23.043 3°12.248 11.1138 3.71127 32.769369 -0.234439
2009-11-16 14:28:17 51°22.997 3°12.024 11.1126 3.71013 32.758945 -0.234439
2009-11-16 14:29:17 51°22.95 3°11.803 11.1139 3.71127 32.770148 -0.234439
2009-11-16 14:30:17 51°22.906 3°11.583 11.1173 3.712825 32.784646 -0.234439
2009-11-16 14:31:17 51°22.862 3°11.361 11.1188 3.726921 32.919293 -0.234439
2009-11-16 14:32:18 51°22.82 3°11.129 11.1215 3.731897 32.96586 -0.234439
2009-11-16 14:33:18 51°22.777 3°10.898 11.1164 3.734903 32.996203 -0.234439
2009-11-16 14:34:18 51°22.734 3°10.669 11.1215 3.734695 32.995733 -0.199615
2009-11-16 14:35:18 51°22.692 3°10.445 11.1241 3.737805 33.022391 -0.199615
2009-11-16 14:36:17 51°22.648 3°10.215 11.1257 3.736872 33.010863 -0.164791
2009-11-16 14:37:18 51°22.603 3°9.977 11.1289 3.739671 33.036815 -0.129967
2009-11-16 14:38:18 51°22.556 3°9.746 11.1307 3.740604 33.043634 -0.095143
2009-11-16 14:39:18 51°22.512 3°9.512 11.1341 3.741536 33.052023 -0.025495
2009-11-16 14:40:18 51°22.466 3°9.289 11.1313 3.743195 33.064404 -0.060319
2009-11-16 14:41:17 51°22.406 3°9.067 11.1281 3.743506 33.070605 -0.164791
2009-11-16 14:42:19 51°22.34 3°8.837 11.1245 3.74278 33.066612 -0.199615
2009-11-16 14:43:18 51°22.279 3°8.62 11.1242 3.74164 33.05697 -0.164791
2009-11-16 14:44:18 51°22.217 3°8.398 11.123 3.742366 33.064892 -0.164791
2009-11-16 14:45:18 51°22.154 3°8.173 11.1222 3.743091 33.073601 -0.129967
2009-11-16 14:46:18 51°22.089 3°7.941 11.1224 3.742573 33.068503 -0.095143
2009-11-16 14:47:17 51°22.025 3°7.713 11.1212 3.741951 33.062385 -0.060319
2009-11-16 14:48:18 51°21.961 3°7.476 11.1283 3.742573 33.069289 -0.025495
2009-11-16 14:49:17 51°21.9 3°7.252 11.1475 3.747134 33.106288 -0.060319
2009-11-16 14:50:18 51°21.835 3°7.01 11.1565 3.757707 33.193746 -0.095143
2009-11-16 14:51:17 51°21.771 3°6.771 11.1682 3.762268 33.230718 0.044153
2009-11-16 14:52:17 51°21.709 3°6.532 11.2043 3.772426 33.314042 -0.199615
2009-11-16 14:53:18 51°21.646 3°6.294 11.2214 3.789012 33.450227 -0.304087
2009-11-16 14:54:17 51°21.586 3°6.07 11.2541 3.79969 33.536959 -0.338911
2009-11-16 14:55:18 51°21.525 3°5.835 11.3175 3.817313 33.672008 -0.408559
2009-11-16 14:56:18 51°21.465 3°5.611 11.3667 3.836492 33.80858 -0.338911
2009-11-16 14:57:18 51°21.406 3°5.382 11.3973 3.848829 33.892142 -0.338911
2009-11-16 14:58:18 51°21.344 3°5.15 11.4398 3.858679 33.958383 -0.373735
2009-11-16 14:59:18 51°21.283 3°4.921 11.5129 3.872675 34.045172 -0.408559
2009-11-16 15:00:17 51°21.224 3°4.695 11.5489 3.88688 34.131418 -0.408559
2009-11-16 15:01:18 51°21.167 3°4.457 11.6028 3.89393 34.157929 -0.408559
2009-11-16 15:02:19 51°21.116 3°4.236 11.6341 3.902121 34.194745 -0.408559
2009-11-16 15:03:19 51°21.061 3°4.011 11.6856 3.905646 34.202755 -0.408559
2009-11-16 15:04:18 51°21.009 3°3.792 11.7424 3.911141 34.203588 -0.443383
2009-11-16 15:05:18 51°20.954 3°3.567 11.8343 3.916843 34.198481 -0.443383
2009-11-16 15:06:18 51°20.903 3°3.353 11.9623 3.925863 34.197825 -0.443383
2009-11-16 15:07:18 51°20.852 3°3.133 12.0655 3.93758 34.200375 -0.478207
2009-11-16 15:08:18 51°20.798 3°2.915 12.1593 3.945771 34.190257 -0.478207
2009-11-16 15:09:20 51°20.745 3°2.698 12.219 3.953029 34.182269 -0.478207
2009-11-16 15:10:18 51°20.69 3°2.478 12.2564 3.953858 34.143072 -0.547855
2009-11-16 15:11:18 51°20.625 3°2.266 12.2778 3.961635 34.185772 -0.513031
2009-11-16 15:12:19 51°20.56 3°2.05 12.2917 3.965057 34.201431 -0.513031
2009-11-16 15:13:19 51°20.499 3°1.842 12.2993 3.963294 34.173475 -0.547855
2009-11-16 15:14:18 51°20.436 3°1.625 12.305 3.966924 34.200545 -0.547855
2009-11-16 15:15:18 51°20.374 3°1.414 12.3121 3.96879 34.213006 -0.513031
2009-11-16 15:16:18 51°20.313 3°1.189 12.3176 3.970242 34.219903 -0.547855
2009-11-16 15:17:20 51°20.256 3°0.963 12.3218 3.970864 34.221176 -0.547855
2009-11-16 15:18:18 51°20.203 3°0.748 12.324 3.968686 34.197096 -0.547855
2009-11-16 15:19:19 51°20.139 3°0.536 12.3264 3.969412 34.201722 -0.547855
2009-11-16 15:20:19 51°20.079 3°0.335 12.3243 3.956449 34.075562 -0.58268
2009-11-16 15:21:18 51°20.015 3°0.117 12.3209 3.965886 34.167825 -0.547855
2009-11-16 15:22:18 51°19.945 2°59.888 12.3131 3.965057 34.164552 -0.58268
2009-11-16 15:23:17 51°19.881 2°59.664 12.2969 3.967649 34.198108 -0.58268
2009-11-16 15:24:17 51°19.813 2°59.44 12.2955 3.965886 34.192139 -0.547855
2009-11-16 15:25:18 51°19.745 2°59.215 12.3001 3.965575 34.188361 -0.58268
2009-11-16 15:26:18 51°19.68 2°59 12.3007 3.966405 34.195557 -0.58268
2009-11-16 15:27:18 51°19.617 2°58.787 12.3113 3.967649 34.202033 -0.58268
2009-11-16 15:28:17 51°19.554 2°58.576 12.3167 3.96879 34.203586 -0.58268
2009-11-16 15:29:19 51°19.487 2°58.364 12.3153 3.969516 34.205858 -0.58268
2009-11-16 15:30:18 51°19.427 2°58.149 12.2998 3.968168 34.196818 -0.58268
2009-11-16 15:31:19 51°19.36 2°57.928 12.2974 3.964746 34.185874 -0.58268
2009-11-16 15:32:19 51°19.299 2°57.717 12.4901 3.968893 34.166175 -0.617504
2009-11-16 15:33:18 51°19.233 2°57.497 12.5698 3.990358 34.165868 -0.547855
2009-11-16 15:34:19 51°19.169 2°57.275 12.6724 3.992846 34.110487 -0.547855
2009-11-16 15:35:35 51°19.085 2°56.995 12.9013 4.007363 34.089617 -0.095143
2009-11-16 15:36:35 51°19.021 2°56.781 13.1028 4.009229 34.024399 -0.269263
2009-11-16 15:37:37 51°18.953 2°56.559 13.0287 3.961833 33.532177 -0.025495
2009-11-16 15:38:35 51°18.873 2°56.366 13.3714 4.014102 33.970412 -0.025495
2009-11-16 15:39:37 51°18.778 2°56.173 13.3054 4.017213 33.938893 -0.513031
2009-11-16 15:40:35 51°18.688 2°55.984 13.5704 4.020842 33.951079 -0.443383
2009-11-16 15:41:35 51°18.597 2°55.775 13.5529 4.033805 33.953296 -0.408559
2009-11-16 15:42:35 51°18.508 2°55.565 13.4579 4.040857 33.89423 -0.617504
2009-11-16 15:43:35 51°18.42 2°55.355 13.356 4.054443 33.903405 -0.58268
2009-11-16 15:44:35 51°18.333 2°55.144 13.6628 4.073629 33.887214 -0.687152
2009-11-16 15:45:37 51°18.244 2°54.931 13.6442 4.090326 33.810893 -0.687152
2009-11-16 15:46:36 51°18.159 2°54.727 13.2899 4.112627 33.90607 -0.547855
2009-11-16 15:47:37 51°18.07 2°54.52 13.8467 4.140839 33.816237 -0.687152
2009-11-16 15:48:35 51°18.008 2°54.304 13.7591 4.158475 33.870421 -0.721976
2009-11-16 15:49:37 51°17.955 2°54.066 13.5058 4.173205 33.87138 -0.687152
2009-11-16 15:50:36 51°17.905 2°53.831 13.6871 4.190426 33.896427 -0.547855
2009-11-16 15:51:35 51°17.853 2°53.601 13.3986 3.387124 26.663618 -0.617504
2009-11-16 15:52:35 51°17.798 2°53.36 13.8717 4.216153 33.86609 -0.478207
2009-11-16 15:53:35 51°17.738 2°53.115 13.685 4.226633 33.94736 -0.478207
2009-11-16 15:54:36 51°17.662 2°52.885 13.8474 4.234414 33.944613 -0.443383
2009-11-16 15:55:35 51°17.571 2°52.69 13.743 4.239394 33.952304 -0.478207
2009-11-16 15:56:35 51°17.452 2°52.513 13.9066 4.244892 33.914383 -0.478207
2009-11-16 15:57:36 51°17.294 2°52.476 13.8063 4.254956 33.875868 -0.547855
2009-11-16 15:58:35 51°17.136 2°52.518 14.1578 4.265954 33.908376 -0.513031
2009-11-16 15:59:35 51°16.978 2°52.584 14.4209 4.27353 33.989067 -0.478207
2009-11-16 16:00:35 51°16.823 2°52.678 14.1602 4.284421 33.806161 -0.408559
2009-11-16 16:01:35 51°16.669 2°52.788 14.3411 4.304969 33.990286 -0.443383
2009-11-16 16:02:35 51°16.514 2°52.905 13.5732 4.299464 33.660953 -0.547855
2009-11-16 16:03:35 51°16.357 2°53.014 14.2276 4.337758 33.892478 -0.373735
2009-11-16 16:04:36 51°16.198 2°53.119 13.2368 3.575031 27.274439 -0.199615
2009-11-16 16:05:35 51°16.045 2°53.231 13.9436 4.361733 34.039401 -0.269263
2009-11-16 16:06:36 51°15.892 2°53.353 14.2065 4.359242 34.03484 -0.269263
2009-11-16 16:07:35 51°15.741 2°53.472 13.8826 4.359035 34.052297 -0.58268
2009-11-16 16:08:36 51°15.585 2°53.592 13.9714 4.349384 34.06304 -0.652328
2009-11-16 16:09:35 51°15.435 2°53.714 13.9456 4.341706 34.126671 -0.338911
2009-11-16 16:10:35 51°15.276 2°53.81 13.5009 4.328527 34.152156 -0.58268
2009-11-16 16:11:35 51°15.109 2°53.855 14.0079 4.323755 34.199704 -0.58268
2009-11-16 16:12:35 51°14.944 2°53.895 13.0509 4.2094 33.227076 -0.269263
2009-11-16 16:13:36 51°14.815 2°54.072 13.8175 4.304453 34.125751 -0.617504
2009-11-16 16:14:35 51°14.711 2°54.288 14.0752 4.300924 34.105013 -0.58268
2009-11-16 16:15:35 51°14.614 2°54.528 13.6899 4.298226 34.083195 -0.513031
2009-11-16 16:16:35 51°14.506 2°54.751 13.7771 4.292831 34.085255 -0.269263
2009-11-16 16:17:35 51°14.397 2°54.973 13.9991 4.289925 34.046799 -0.408559
2009-11-16 16:18:35 51°14.294 2°55.197 13.6417 4.289615 34.140629 -0.408559
2009-11-16 16:19:35 51°14.181 2°55.363 13.4266 4.267825 34.128523 -0.58268
2009-11-16 16:20:35 51°14.07 2°55.453 13.4774 4.26523 34.041478 -0.617504
2009-11-16 16:21:35 51°13.971 2°55.527 13.5467 4.267202 34.058363 -0.408559
2009-11-16 16:22:35 51°13.862 2°55.605 13.3947 4.261288 34.093531 -0.408559
2009-11-16 16:23:39 51°13.764 2°55.699 15.7065 0.12382 0.761165 -0.652328
2009-11-16 16:24:39 51°13.712 2°55.805 15.6846 0.101075 0.615853 -0.652328
2009-11-16 16:25:39 51°13.675 2°55.903 15.5747 0.108176 0.661039 -0.652328
2009-11-16 16:26:39 51°13.663 2°55.958 15.6587 0.100869 0.614483 -0.652328